Time;durP1;ratioP1;P1;durP2;ratioP2;P2;SDS_P1;SDS_P2;PMS_P1;PMS_P2;Temp;Humidity;BMP_temperature;BMP_pressure;BME280_temperature;BME280_humidity;BME280_pressure;Samples;Min_cycle;Max_cycle;Signal;HPM_P1;HPM_P2
2021/06/29 00:00:50;;;;;;;0.10;0.10;;;14.80;81.50;;;;;;5034898;28;20143;-66
2021/06/29 00:03:16;;;;;;;0.08;0.08;;;14.80;81.30;;;;;;5034890;28;20157;-66
2021/06/29 00:05:46;;;;;;;0.10;0.10;;;14.80;81.30;;;;;;5034666;28;20095;-65
2021/06/29 00:08:13;;;;;;;0.00;0.00;;;14.80;81.30;;;;;;5034948;28;20132;-66
2021/06/29 00:10:40;;;;;;;0.05;0.00;;;14.80;81.40;;;;;;5034593;28;20485;-65
2021/06/29 00:13:07;;;;;;;0.10;0.10;;;14.80;81.50;;;;;;5034592;28;20140;-66
2021/06/29 00:15:34;;;;;;;0.05;0.05;;;14.80;81.50;;;;;;5034135;28;20053;-66
2021/06/29 00:18:01;;;;;;;0.00;0.00;;;14.80;81.50;;;;;;5034511;28;20045;-65
2021/06/29 00:20:27;;;;;;;0.00;0.00;;;14.80;81.40;;;;;;5034288;28;20132;-65
2021/06/29 00:22:53;;;;;;;0.10;0.10;;;14.80;81.30;;;;;;5034736;28;20180;-65
2021/06/29 00:25:20;;;;;;;0.00;0.00;;;14.80;81.20;;;;;;5034406;28;20084;-66
2021/06/29 00:27:47;;;;;;;0.20;0.03;;;14.80;81.10;;;;;;5034505;28;20054;-65
2021/06/29 00:30:14;;;;;;;0.10;0.10;;;14.80;81.20;;;;;;5034236;28;20118;-66
2021/06/29 00:32:40;;;;;;;0.10;0.10;;;14.80;81.20;;;;;;5016700;28;20526;-66
2021/06/29 00:35:08;;;;;;;0.03;0.00;;;14.80;81.30;;;;;;5034592;28;20077;-65
2021/06/29 00:37:34;;;;;;;0.00;0.00;;;14.80;81.40;;;;;;5034453;28;20042;-66
2021/06/29 00:40:03;;;;;;;0.00;0.00;;;14.70;81.40;;;;;;5033937;28;20124;-66
2021/06/29 00:42:29;;;;;;;0.10;0.10;;;14.80;81.40;;;;;;5034181;28;20045;-66
2021/06/29 00:44:55;;;;;;;0.00;0.00;;;14.80;81.40;;;;;;5033425;28;20522;-65
2021/06/29 00:47:22;;;;;;;0.38;0.10;;;14.70;81.40;;;;;;5015981;28;20045;-65
2021/06/29 00:49:48;;;;;;;0.10;0.10;;;14.70;81.70;;;;;;5034200;28;20046;-65
2021/06/29 00:52:16;;;;;;;0.10;0.10;;;14.70;81.90;;;;;;5033916;28;20132;-65
2021/06/29 00:54:43;;;;;;;0.00;0.00;;;14.60;82.00;;;;;;5034064;28;20060;-66
2021/06/29 00:57:11;;;;;;;0.10;0.10;;;14.70;82.10;;;;;;5033880;28;20497;-66
2021/06/29 00:59:39;;;;;;;0.10;0.00;;;14.70;82.10;;;;;;5033777;28;20103;-65
2021/06/29 01:02:10;;;;;;;0.00;0.00;;;14.70;82.00;;;;;;5034000;28;20041;-65
2021/06/29 01:04:39;;;;;;;0.40;0.10;;;14.70;82.10;;;;;;5033761;28;20042;-65
2021/06/29 01:07:12;;;;;;;0.00;0.00;;;14.60;82.20;;;;;;5033396;28;20084;-65
2021/06/29 01:09:40;;;;;;;0.55;0.10;;;14.50;82.60;;;;;;5016101;28;20093;-65
2021/06/29 01:12:08;;;;;;;0.10;0.00;;;14.40;83.00;;;;;;5033712;28;20056;-65
2021/06/29 01:14:35;;;;;;;0.00;0.00;;;14.30;83.40;;;;;;5025849;28;20050;-65
2021/06/29 01:17:04;;;;;;;0.00;0.00;;;14.30;84.00;;;;;;5027794;28;20053;-66
2021/06/29 01:22:08;;;;;;;0.05;0.00;;;14.30;83.10;;;;;;5033485;28;20084;-65
2021/06/29 01:24:35;;;;;;;0.20;0.10;;;14.30;82.60;;;;;;5033208;28;20050;-66
2021/06/29 01:29:43;;;;;;;0.13;0.10;;;14.30;82.20;;;;;;5033253;28;20394;-66
2021/06/29 01:32:17;;;;;;;0.10;0.10;;;14.30;82.10;;;;;;5015305;28;20054;-65
2021/06/29 01:34:44;;;;;;;0.00;0.00;;;14.30;82.30;;;;;;5032604;28;20080;-65
2021/06/29 01:37:11;;;;;;;0.00;0.00;;;14.40;82.40;;;;;;5021398;28;20481;-65
2021/06/29 01:39:55;;;;;;;0.10;0.10;;;14.40;82.40;;;;;;5033256;28;20599;-65
2021/06/29 01:42:21;;;;;;;0.35;0.20;;;14.30;82.30;;;;;;5014999;28;20099;-65
2021/06/29 01:44:47;;;;;;;0.00;0.00;;;14.30;82.30;;;;;;5032902;28;20064;-65
2021/06/29 01:47:23;;;;;;;0.55;0.20;;;14.30;82.30;;;;;;5033198;28;20088;-65
2021/06/29 01:49:50;;;;;;;0.00;0.00;;;14.30;82.30;;;;;;5033050;28;20081;-65
2021/06/29 01:52:16;;;;;;;0.00;0.00;;;14.30;82.30;;;;;;5032890;28;20136;-65
2021/06/29 01:54:44;;;;;;;0.00;0.00;;;14.30;82.30;;;;;;5032826;28;20179;-65
2021/06/29 01:57:18;;;;;;;0.00;0.00;;;14.20;82.10;;;;;;5032580;28;20507;-65
2021/06/29 01:59:47;;;;;;;0.00;0.00;;;14.20;82.10;;;;;;5032878;28;20047;-65
2021/06/29 02:02:14;;;;;;;0.43;0.05;;;14.20;82.10;;;;;;5032592;28;20116;-65
2021/06/29 02:04:41;;;;;;;0.00;0.00;;;14.20;82.00;;;;;;5032660;28;20077;-65
2021/06/29 02:07:07;;;;;;;0.13;0.00;;;14.20;82.00;;;;;;5032798;28;20129;-66
2021/06/29 02:09:34;;;;;;;0.65;0.17;;;14.20;82.10;;;;;;5032443;28;20053;-66
2021/06/29 02:12:00;;;;;;;0.00;0.00;;;14.20;82.30;;;;;;5032164;28;20143;-66
2021/06/29 02:14:26;;;;;;;0.00;0.00;;;14.20;82.80;;;;;;5032149;28;20421;-65
2021/06/29 02:16:53;;;;;;;0.90;0.25;;;14.10;82.90;;;;;;5032327;28;20102;-65
2021/06/29 02:19:19;;;;;;;0.20;0.10;;;14.10;83.30;;;;;;5031726;28;20053;-65
2021/06/29 02:21:45;;;;;;;0.00;0.00;;;14.00;83.40;;;;;;5032324;28;20510;-66
2021/06/29 02:24:12;;;;;;;0.00;0.00;;;14.00;83.40;;;;;;5031972;28;20505;-66
2021/06/29 02:26:38;;;;;;;0.00;0.00;;;14.10;83.40;;;;;;5029641;28;20045;-65
2021/06/29 02:29:04;;;;;;;0.00;0.00;;;14.10;83.30;;;;;;5015362;28;20050;-64
2021/06/29 02:31:30;;;;;;;0.00;0.00;;;14.10;83.20;;;;;;5026185;28;20142;-65
2021/06/29 02:33:57;;;;;;;0.05;0.00;;;14.10;83.10;;;;;;5016614;28;20159;-65
2021/06/29 02:36:23;;;;;;;0.00;0.00;;;14.20;83.00;;;;;;5022075;28;20050;-65
2021/06/29 02:38:49;;;;;;;0.00;0.00;;;14.20;83.00;;;;;;5028324;28;20045;-65
2021/06/29 02:41:16;;;;;;;0.45;0.10;;;14.20;82.80;;;;;;5031787;28;20054;-66
2021/06/29 02:43:42;;;;;;;0.00;0.00;;;14.30;82.90;;;;;;5031417;28;20528;-66
2021/06/29 02:46:09;;;;;;;0.00;0.00;;;14.20;82.90;;;;;;5012254;28;20169;-65
2021/06/29 02:48:35;;;;;;;0.00;0.00;;;14.20;83.00;;;;;;5018035;28;20188;-66
2021/06/29 02:51:01;;;;;;;0.08;0.08;;;14.20;83.10;;;;;;5017925;28;20061;-65
2021/06/29 02:53:28;;;;;;;0.10;0.10;;;14.20;83.20;;;;;;5031614;28;20158;-65
2021/06/29 02:55:54;;;;;;;0.10;0.10;;;14.30;83.20;;;;;;5013450;28;20469;-65
2021/06/29 02:58:20;;;;;;;0.00;0.00;;;14.20;83.20;;;;;;5031838;28;20183;-66
2021/06/29 03:00:47;;;;;;;0.03;0.00;;;14.20;83.40;;;;;;5012902;28;20153;-66
2021/06/29 03:03:13;;;;;;;0.00;0.00;;;14.20;83.40;;;;;;5018608;28;20626;-66
2021/06/29 03:05:40;;;;;;;0.00;0.00;;;14.20;83.40;;;;;;5031870;28;20155;-65
2021/06/29 03:08:06;;;;;;;0.00;0.00;;;14.20;83.40;;;;;;5031522;28;20175;-66
2021/06/29 03:10:32;;;;;;;0.00;0.00;;;14.30;83.40;;;;;;5031383;28;20187;-66
2021/06/29 03:12:59;;;;;;;0.00;0.00;;;14.30;83.30;;;;;;5031401;28;20061;-66
2021/06/29 03:15:26;;;;;;;0.00;0.00;;;14.40;83.30;;;;;;5031449;28;20080;-66
2021/06/29 03:17:53;;;;;;;0.35;0.00;;;14.40;83.20;;;;;;5031491;28;20127;-66
2021/06/29 03:20:19;;;;;;;0.10;0.10;;;14.40;83.20;;;;;;5031235;28;20096;-66
2021/06/29 03:22:46;;;;;;;0.00;0.00;;;14.40;83.00;;;;;;5031518;28;20081;-65
2021/06/29 03:25:13;;;;;;;0.32;0.00;;;14.40;83.00;;;;;;5031428;28;20057;-66
2021/06/29 03:27:40;;;;;;;0.00;0.00;;;14.40;83.20;;;;;;5031295;28;20141;-66
2021/06/29 03:30:08;;;;;;;0.05;0.00;;;14.30;83.40;;;;;;5032043;28;20050;-66
2021/06/29 03:32:35;;;;;;;0.00;0.00;;;14.30;83.50;;;;;;5035588;28;20050;-66
2021/06/29 03:35:07;;;;;;;0.10;0.10;;;14.30;83.50;;;;;;5034055;28;20557;-65
2021/06/29 03:37:35;;;;;;;0.00;0.00;;;14.30;83.60;;;;;;5023321;28;20871;-65
2021/06/29 03:40:02;;;;;;;0.03;0.00;;;14.30;83.70;;;;;;5035216;28;20107;-66
2021/06/29 03:42:28;;;;;;;0.10;0.10;;;14.30;83.90;;;;;;5035476;28;20509;-66
2021/06/29 03:44:55;;;;;;;0.00;0.00;;;14.30;84.10;;;;;;5035029;28;20049;-65
2021/06/29 03:47:21;;;;;;;0.10;0.10;;;14.30;84.20;;;;;;5034384;28;20402;-66
2021/06/29 03:49:47;;;;;;;0.00;0.00;;;14.30;85.20;;;;;;5035241;28;20127;-65
2021/06/29 03:52:13;;;;;;;0.10;0.10;;;14.30;84.30;;;;;;5034530;28;20534;-66
2021/06/29 03:54:40;;;;;;;0.08;0.08;;;14.30;84.30;;;;;;5034900;28;20089;-66
2021/06/29 03:57:06;;;;;;;0.10;0.03;;;14.30;84.20;;;;;;5035167;28;20525;-66
2021/06/29 03:59:33;;;;;;;0.10;0.00;;;14.30;84.10;;;;;;5034919;28;20042;-66
2021/06/29 04:01:59;;;;;;;0.10;0.10;;;14.40;84.10;;;;;;5034118;28;20125;-66
2021/06/29 04:04:25;;;;;;;0.00;0.00;;;14.40;84.00;;;;;;5035273;28;20037;-66
2021/06/29 04:06:52;;;;;;;0.10;0.10;;;14.40;84.00;;;;;;5034459;28;20094;-65
2021/06/29 04:09:18;;;;;;;0.10;0.10;;;14.50;84.00;;;;;;5034628;28;20128;-65
2021/06/29 04:11:44;;;;;;;0.00;0.00;;;14.50;83.90;;;;;;5034429;28;20457;-65
2021/06/29 04:14:11;;;;;;;0.00;0.00;;;14.50;83.80;;;;;;5034261;28;20132;-65
2021/06/29 04:16:37;;;;;;;0.00;0.00;;;14.50;83.70;;;;;;5034596;28;20128;-65
2021/06/29 04:19:03;;;;;;;0.10;0.10;;;14.50;83.70;;;;;;5034781;28;20102;-65
2021/06/29 04:21:29;;;;;;;0.10;0.10;;;14.60;83.70;;;;;;5034111;28;20184;-65
2021/06/29 04:23:56;;;;;;;0.10;0.00;;;14.60;83.60;;;;;;5034487;28;20139;-65
2021/06/29 04:26:22;;;;;;;0.10;0.10;;;14.60;83.60;;;;;;5034615;28;20045;-66
2021/06/29 04:28:49;;;;;;;0.10;0.10;;;14.60;83.60;;;;;;5034549;28;20509;-65
2021/06/29 04:31:17;;;;;;;0.10;0.10;;;14.60;83.50;;;;;;5034184;28;20054;-66
2021/06/29 04:33:44;;;;;;;0.03;0.03;;;14.60;83.50;;;;;;5034515;28;20076;-65
2021/06/29 04:36:10;;;;;;;0.10;0.10;;;14.60;83.50;;;;;;5023490;28;20132;-65
2021/06/29 04:38:36;;;;;;;0.22;0.00;;;14.60;83.50;;;;;;5031150;28;20089;-65
2021/06/29 04:41:03;;;;;;;0.10;0.10;;;14.60;83.40;;;;;;5034188;28;20049;-66
2021/06/29 04:43:30;;;;;;;0.00;0.00;;;14.60;83.40;;;;;;5033453;28;20084;-65
2021/06/29 04:45:56;;;;;;;0.10;0.08;;;14.60;83.30;;;;;;5033502;28;20087;-65
2021/06/29 04:48:23;;;;;;;0.00;0.00;;;14.60;83.30;;;;;;5034168;28;20056;-66
2021/06/29 04:50:49;;;;;;;0.10;0.10;;;14.60;83.40;;;;;;5033693;28;20053;-65
2021/06/29 04:53:16;;;;;;;0.10;0.10;;;14.70;83.40;;;;;;5034215;28;20128;-65
2021/06/29 04:55:42;;;;;;;0.10;0.10;;;14.70;83.40;;;;;;5033512;28;20482;-65
2021/06/29 04:58:08;;;;;;;0.32;0.00;;;14.70;83.50;;;;;;5033587;28;20448;-65
2021/06/29 05:00:37;;;;;;;0.15;0.08;;;14.70;83.50;;;;;;5033473;28;20047;-65
2021/06/29 05:03:04;;;;;;;0.00;0.00;;;14.70;83.40;;;;;;5033571;28;20049;-65
2021/06/29 05:05:30;;;;;;;0.00;0.00;;;14.70;83.40;;;;;;5033283;28;20046;-66
2021/06/29 05:07:56;;;;;;;0.05;0.05;;;14.70;83.50;;;;;;5015573;28;20338;-66
2021/06/29 05:10:23;;;;;;;0.10;0.10;;;14.80;83.50;;;;;;5033437;28;20136;-65
2021/06/29 05:12:49;;;;;;;0.10;0.10;;;14.70;83.40;;;;;;5033151;28;20152;-66
2021/06/29 05:15:16;;;;;;;0.00;0.00;;;14.80;83.40;;;;;;5033359;28;20100;-65
2021/06/29 05:17:42;;;;;;;0.10;0.10;;;14.80;83.30;;;;;;5033624;28;20057;-66
2021/06/29 05:20:09;;;;;;;0.10;0.05;;;14.80;83.40;;;;;;5032920;28;20080;-66
2021/06/29 05:22:35;;;;;;;0.00;0.00;;;14.80;83.40;;;;;;5033425;28;20126;-65
2021/06/29 05:25:03;;;;;;;0.03;0.03;;;14.80;83.40;;;;;;5033438;28;20156;-66
2021/06/29 05:27:30;;;;;;;0.00;0.00;;;14.80;83.40;;;;;;5032729;28;20057;-67
2021/06/29 05:29:57;;;;;;;0.00;0.00;;;14.80;83.40;;;;;;5033331;28;20085;-68
2021/06/29 05:32:23;;;;;;;0.00;0.00;;;14.90;83.40;;;;;;5032777;28;20049;-65
2021/06/29 05:34:50;;;;;;;0.10;0.10;;;14.90;83.40;;;;;;5031460;28;20127;-66
2021/06/29 05:37:16;;;;;;;0.00;0.00;;;14.90;83.40;;;;;;5031868;28;20129;-66
2021/06/29 05:39:42;;;;;;;0.10;0.10;;;14.90;83.40;;;;;;5032109;28;20425;-66
2021/06/29 05:42:09;;;;;;;0.00;0.00;;;15.00;83.30;;;;;;5032123;28;20482;-65
2021/06/29 05:44:35;;;;;;;0.00;0.00;;;15.00;83.30;;;;;;5031025;28;20119;-62
2021/06/29 05:47:05;;;;;;;0.08;0.08;;;15.10;83.30;;;;;;5031023;28;20532;-61
2021/06/29 05:49:32;;;;;;;0.10;0.10;;;15.10;83.30;;;;;;5031592;28;20124;-62
2021/06/29 05:51:58;;;;;;;0.00;0.00;;;15.20;83.30;;;;;;5032068;28;20168;-62
2021/06/29 05:54:24;;;;;;;0.00;0.00;;;15.20;83.20;;;;;;5011415;28;20109;-62
2021/06/29 05:56:51;;;;;;;0.00;0.00;;;15.20;83.10;;;;;;5030641;28;20052;-61
2021/06/29 05:59:17;;;;;;;0.22;0.10;;;15.30;83.00;;;;;;5031500;28;20076;-61
2021/06/29 06:01:43;;;;;;;0.10;0.10;;;15.30;82.90;;;;;;5031892;28;20041;-62
2021/06/29 06:04:10;;;;;;;0.00;0.00;;;15.30;82.60;;;;;;5031793;28;20042;-62
2021/06/29 06:06:36;;;;;;;0.22;0.03;;;15.20;82.60;;;;;;5031589;28;20120;-64
2021/06/29 06:09:03;;;;;;;0.00;0.00;;;15.20;82.80;;;;;;5028686;28;20057;-62
2021/06/29 06:11:29;;;;;;;0.00;0.00;;;15.20;82.70;;;;;;5031396;28;20057;-62
2021/06/29 06:13:55;;;;;;;0.13;0.13;;;15.20;82.60;;;;;;5030556;28;20085;-62
2021/06/29 06:16:22;;;;;;;0.10;0.10;;;15.20;82.60;;;;;;5030720;28;20045;-61
2021/06/29 06:18:48;;;;;;;0.20;0.10;;;15.20;82.80;;;;;;5030279;28;20102;-61
2021/06/29 06:21:14;;;;;;;0.10;0.10;;;15.30;82.70;;;;;;5030783;28;20084;-63
2021/06/29 06:23:41;;;;;;;0.28;0.28;;;15.30;82.60;;;;;;5031942;28;20048;-62
2021/06/29 06:26:07;;;;;;;0.10;0.10;;;15.40;82.50;;;;;;5031821;28;20114;-67
2021/06/29 06:28:33;;;;;;;0.10;0.10;;;15.50;82.50;;;;;;5032131;28;20176;-67
2021/06/29 06:31:00;;;;;;;0.00;0.00;;;15.60;82.50;;;;;;5031844;28;20536;-67
2021/06/29 06:33:26;;;;;;;0.00;0.00;;;15.70;82.20;;;;;;5031672;28;20151;-67
2021/06/29 06:35:52;;;;;;;0.00;0.00;;;15.90;82.20;;;;;;5031463;28;20041;-67
2021/06/29 06:38:18;;;;;;;0.32;0.00;;;15.90;81.90;;;;;;5031160;28;20053;-67
2021/06/29 06:40:45;;;;;;;0.10;0.10;;;15.90;81.60;;;;;;5031811;28;20049;-67
2021/06/29 06:43:11;;;;;;;0.00;0.00;;;16.00;81.50;;;;;;5031756;28;20171;-67
2021/06/29 06:45:37;;;;;;;0.10;0.10;;;16.00;81.20;;;;;;5031493;28;20080;-70
2021/06/29 06:48:05;;;;;;;0.00;0.00;;;16.10;81.10;;;;;;5031024;28;20520;-70
2021/06/29 06:50:31;;;;;;;0.00;0.00;;;16.10;80.60;;;;;;5010759;28;20075;-70
2021/06/29 06:52:57;;;;;;;0.00;0.00;;;16.10;80.30;;;;;;5030552;28;20124;-75
2021/06/29 06:55:25;;;;;;;0.00;0.00;;;16.20;80.20;;;;;;5013722;28;20057;-65
2021/06/29 06:57:53;;;;;;;0.00;0.00;;;16.20;80.00;;;;;;5031333;28;20489;-63
2021/06/29 07:00:21;;;;;;;0.00;0.00;;;16.20;80.00;;;;;;5028970;28;20152;-67
2021/06/29 07:02:48;;;;;;;0.00;0.00;;;16.10;79.60;;;;;;5030721;28;20124;-67
2021/06/29 07:05:14;;;;;;;0.10;0.05;;;16.20;79.90;;;;;;5030515;28;20533;-65
2021/06/29 07:07:41;;;;;;;0.10;0.10;;;16.20;79.80;;;;;;5030912;28;20569;-62
2021/06/29 07:10:08;;;;;;;0.00;0.00;;;16.30;79.60;;;;;;5030754;28;20088;-63
2021/06/29 07:12:35;;;;;;;0.00;0.00;;;16.40;79.80;;;;;;5032109;28;20211;-63
2021/06/29 07:15:02;;;;;;;0.00;0.00;;;16.60;80.00;;;;;;5027664;28;20146;-63
2021/06/29 07:17:47;;;;;;;0.00;0.00;;;16.70;79.40;;;;;;5030797;28;20053;-63
2021/06/29 07:20:14;;;;;;;0.00;0.00;;;16.80;79.10;;;;;;5031284;28;20050;-63
2021/06/29 07:22:41;;;;;;;0.00;0.00;;;16.90;78.90;;;;;;5030710;28;20052;-62
2021/06/29 07:25:08;;;;;;;0.00;0.00;;;16.90;78.70;;;;;;5031061;28;20128;-63
2021/06/29 07:27:35;;;;;;;0.10;0.10;;;16.90;78.40;;;;;;5030966;28;20125;-63
2021/06/29 07:30:02;;;;;;;0.10;0.10;;;16.90;77.60;;;;;;5032330;28;20179;-63
2021/06/29 07:32:28;;;;;;;0.10;0.10;;;16.90;77.80;;;;;;5034614;28;20412;-63
2021/06/29 07:34:55;;;;;;;0.10;0.10;;;16.80;77.70;;;;;;5029999;28;20505;-66
2021/06/29 07:37:21;;;;;;;0.00;0.00;;;16.80;77.40;;;;;;5030723;28;20132;-63
2021/06/29 07:39:47;;;;;;;0.00;0.00;;;16.80;77.30;;;;;;5031681;28;20045;-62
2021/06/29 07:42:13;;;;;;;0.00;0.00;;;16.80;77.60;;;;;;5030563;28;20045;-63
2021/06/29 07:44:40;;;;;;;0.00;0.00;;;16.70;77.90;;;;;;5030471;28;20128;-63
2021/06/29 07:47:06;;;;;;;0.03;0.03;;;16.70;77.70;;;;;;5030801;28;20050;-63
2021/06/29 07:49:32;;;;;;;0.00;0.00;;;16.80;78.00;;;;;;5031128;28;20085;-63
2021/06/29 07:51:59;;;;;;;0.20;0.10;;;16.80;78.20;;;;;;5030798;28;20509;-62
2021/06/29 07:54:25;;;;;;;0.00;0.00;;;16.80;78.30;;;;;;5031187;28;20513;-62
2021/06/29 07:56:52;;;;;;;0.10;0.00;;;16.90;78.20;;;;;;5031042;28;20099;-63
2021/06/29 07:59:18;;;;;;;0.38;0.00;;;17.00;77.90;;;;;;5030031;28;20077;-62
2021/06/29 08:01:44;;;;;;;0.05;0.00;;;17.10;77.50;;;;;;5031106;28;20049;-62
2021/06/29 08:04:11;;;;;;;0.20;0.10;;;17.20;77.10;;;;;;5030925;28;20106;-63
2021/06/29 08:06:37;;;;;;;0.00;0.00;;;17.40;77.00;;;;;;5029921;28;20053;-63
2021/06/29 08:09:03;;;;;;;0.00;0.00;;;17.50;76.20;;;;;;5028007;28;20049;-63
2021/06/29 08:11:30;;;;;;;0.00;0.00;;;17.60;75.90;;;;;;5030325;28;20461;-63
2021/06/29 08:13:56;;;;;;;0.00;0.00;;;17.70;76.00;;;;;;5029345;28;20053;-64
2021/06/29 08:16:22;;;;;;;0.00;0.00;;;17.80;76.20;;;;;;5028525;28;20103;-64
2021/06/29 08:18:49;;;;;;;0.00;0.00;;;18.00;76.10;;;;;;5033862;28;20073;-63
2021/06/29 08:21:15;;;;;;;0.00;0.00;;;18.10;75.60;;;;;;5035308;28;20056;-63
2021/06/29 08:23:42;;;;;;;0.00;0.00;;;18.30;75.50;;;;;;5034225;28;20124;-62
2021/06/29 08:26:08;;;;;;;0.00;0.00;;;18.40;75.20;;;;;;5033967;28;20491;-62
2021/06/29 08:28:36;;;;;;;0.00;0.00;;;18.50;74.80;;;;;;5033959;28;20136;-63
2021/06/29 08:31:04;;;;;;;0.00;0.00;;;18.60;74.70;;;;;;5041912;28;20049;-62
2021/06/29 08:33:31;;;;;;;0.00;0.00;;;18.80;74.50;;;;;;5033880;28;20057;-62
2021/06/29 08:35:58;;;;;;;0.00;0.00;;;18.90;74.20;;;;;;5034057;28;20045;-63
2021/06/29 08:38:25;;;;;;;0.00;0.00;;;19.20;73.90;;;;;;5033548;28;20492;-63
2021/06/29 08:40:51;;;;;;;0.00;0.00;;;19.40;73.00;;;;;;5034399;28;20049;-63
2021/06/29 08:43:18;;;;;;;0.00;0.00;;;19.70;71.00;;;;;;5033365;28;20050;-63
2021/06/29 08:45:45;;;;;;;0.45;0.10;;;19.80;70.60;;;;;;5033420;28;20042;-63
2021/06/29 08:48:11;;;;;;;0.00;0.00;;;19.80;70.40;;;;;;5033025;28;20606;-63
2021/06/29 08:50:39;;;;;;;0.00;0.00;;;19.80;70.10;;;;;;5033903;28;20450;-63
2021/06/29 08:53:09;;;;;;;0.00;0.00;;;19.70;70.00;;;;;;5033942;28;20053;-63
2021/06/29 08:55:39;;;;;;;0.00;0.00;;;19.60;70.00;;;;;;5033937;28;20101;-63
2021/06/29 08:58:05;;;;;;;0.00;0.00;;;19.60;70.20;;;;;;5033276;28;20128;-63
2021/06/29 09:00:32;;;;;;;0.00;0.00;;;19.80;70.30;;;;;;5033810;28;20412;-63
2021/06/29 09:02:58;;;;;;;0.00;0.00;;;20.10;69.40;;;;;;5033561;28;20120;-62
2021/06/29 09:05:27;;;;;;;0.10;0.10;;;20.30;67.30;;;;;;5033611;28;20442;-62
2021/06/29 09:08:07;;;;;;;0.10;0.10;;;20.60;66.20;;;;;;5032926;28;20124;-62
2021/06/29 09:10:36;;;;;;;0.10;0.10;;;20.80;64.70;;;;;;5033724;28;20046;-62
2021/06/29 09:13:05;;;;;;;0.00;0.00;;;21.00;65.40;;;;;;5028449;28;20049;-63
2021/06/29 09:15:38;;;;;;;0.00;0.00;;;21.30;64.70;;;;;;5032211;28;20045;-62
2021/06/29 09:18:04;;;;;;;0.00;0.00;;;21.40;63.50;;;;;;5032813;28;20080;-63
2021/06/29 09:20:37;;;;;;;0.00;0.00;;;21.40;63.20;;;;;;5032336;28;20535;-62
2021/06/29 09:23:17;;;;;;;0.17;0.10;;;21.40;63.20;;;;;;5032101;28;20413;-62
2021/06/29 09:25:53;;;;;;;0.00;0.00;;;21.40;62.50;;;;;;5031610;28;20041;-62
2021/06/29 09:28:23;;;;;;;0.08;0.00;;;21.20;62.50;;;;;;5031877;28;20088;-62
2021/06/29 09:30:54;;;;;;;0.28;0.08;;;21.10;62.30;;;;;;5030033;28;20154;-62
2021/06/29 09:33:27;;;;;;;0.00;0.00;;;21.10;61.90;;;;;;5012362;28;20351;-62
2021/06/29 09:35:56;;;;;;;0.00;0.00;;;21.10;62.20;;;;;;5032364;28;20072;-62
2021/06/29 09:38:25;;;;;;;0.00;0.00;;;21.20;62.50;;;;;;5031914;28;20046;-62
2021/06/29 09:41:04;;;;;;;0.00;0.00;;;21.40;62.20;;;;;;5032104;28;20046;-62
2021/06/29 09:43:39;;;;;;;0.22;0.10;;;21.60;61.40;;;;;;5031763;28;20481;-62
2021/06/29 09:46:08;;;;;;;0.00;0.00;;;21.80;61.00;;;;;;5032758;28;20619;-64
2021/06/29 09:48:37;;;;;;;0.00;0.00;;;22.00;60.20;;;;;;5032469;28;20046;-64
2021/06/29 09:51:18;;;;;;;0.05;0.05;;;22.10;60.00;;;;;;5032792;28;20046;-63
2021/06/29 09:53:53;;;;;;;0.00;0.00;;;22.10;60.00;;;;;;5013643;28;20080;-62
2021/06/29 09:56:25;;;;;;;0.00;0.00;;;22.20;58.20;;;;;;5031591;28;20076;-62
2021/06/29 09:58:54;;;;;;;0.28;0.10;;;22.20;57.50;;;;;;5030488;28;20057;-62
2021/06/29 10:01:25;;;;;;;0.00;0.00;;;22.20;58.10;;;;;;5038980;28;20060;-62
2021/06/29 10:03:53;;;;;;;0.00;0.00;;;22.10;58.20;;;;;;5030336;28;20130;-64
2021/06/29 10:06:25;;;;;;;0.17;0.03;;;22.00;58.10;;;;;;5031073;28;20069;-64
2021/06/29 10:09:00;;;;;;;0.00;0.00;;;22.10;57.70;;;;;;5031235;28;20107;-64
2021/06/29 10:11:28;;;;;;;0.00;0.00;;;22.10;57.40;;;;;;5032267;28;20049;-64
2021/06/29 10:14:06;;;;;;;0.47;0.10;;;22.10;57.00;;;;;;5032087;28;20144;-64
2021/06/29 10:16:42;;;;;;;0.00;0.00;;;22.10;57.00;;;;;;5030502;28;20127;-64
2021/06/29 10:21:45;;;;;;;0.00;0.00;;;21.90;56.00;;;;;;5031902;28;20175;-64
2021/06/29 10:24:15;;;;;;;0.00;0.00;;;21.90;56.00;;;;;;5030982;28;20053;-64
2021/06/29 10:26:44;;;;;;;0.00;0.00;;;21.80;56.30;;;;;;5031738;28;20046;-64
2021/06/29 10:29:13;;;;;;;0.00;0.00;;;21.70;57.10;;;;;;5031562;28;20252;-64
2021/06/29 10:32:09;;;;;;;0.00;0.00;;;21.70;57.30;;;;;;5030460;28;20500;-65
2021/06/29 10:34:36;;;;;;;0.00;0.00;;;21.50;57.50;;;;;;5025554;28;20191;-65
2021/06/29 10:37:04;;;;;;;0.00;0.00;;;21.40;57.70;;;;;;5031415;28;20132;-64
2021/06/29 10:39:32;;;;;;;0.00;0.00;;;21.40;57.70;;;;;;5030427;28;20172;-64
2021/06/29 10:42:11;;;;;;;0.00;0.00;;;21.40;57.70;;;;;;5031549;28;20120;-64
2021/06/29 10:44:43;;;;;;;0.00;0.00;;;21.40;58.10;;;;;;5030640;28;20041;-64
2021/06/29 10:47:18;;;;;;;0.00;0.00;;;21.50;58.90;;;;;;5030966;28;20088;-64
2021/06/29 10:49:49;;;;;;;0.00;0.00;;;21.50;58.90;;;;;;5031062;28;20129;-64
2021/06/29 10:52:27;;;;;;;0.00;0.00;;;21.60;58.40;;;;;;5030285;28;20088;-64
2021/06/29 10:54:55;;;;;;;0.00;0.00;;;21.60;58.40;;;;;;5030193;28;20124;-64
2021/06/29 10:57:28;;;;;;;0.00;0.00;;;21.60;58.50;;;;;;5011453;28;20128;-64
2021/06/29 10:59:55;;;;;;;0.00;0.00;;;21.50;58.80;;;;;;5032391;28;20124;-64
2021/06/29 11:02:29;;;;;;;0.00;0.00;;;21.50;58.80;;;;;;5029952;28;20183;-64
2021/06/29 11:05:11;;;;;;;0.00;0.00;;;21.40;59.00;;;;;;5029143;28;20130;-64
2021/06/29 11:07:45;;;;;;;0.00;0.00;;;21.50;59.20;;;;;;5030011;28;20128;-64
2021/06/29 11:10:34;;;;;;;0.00;0.00;;;21.50;59.00;;;;;;5030491;28;20496;-64
2021/06/29 11:13:00;;;;;;;0.00;0.00;;;21.60;57.70;;;;;;5028830;28;20077;-64
2021/06/29 11:15:52;;;;;;;0.00;0.00;;;21.60;58.00;;;;;;5030643;28;20132;-64
2021/06/29 11:18:41;;;;;;;0.00;0.00;;;21.70;57.60;;;;;;5028892;28;20557;-65
2021/06/29 11:21:10;;;;;;;0.10;0.10;;;21.70;58.20;;;;;;5031347;28;20046;-66
2021/06/29 11:23:37;;;;;;;0.10;0.10;;;21.60;58.80;;;;;;5031254;28;20132;-62
2021/06/29 11:26:13;;;;;;;0.00;0.00;;;21.40;59.00;;;;;;5030847;28;20108;-66
2021/06/29 11:28:39;;;;;;;0.20;0.00;;;21.30;59.40;;;;;;5028453;28;20068;-66
2021/06/29 11:31:22;;;;;;;0.43;0.00;;;21.10;59.40;;;;;;5037591;28;20079;-64
2021/06/29 11:34:07;;;;;;;0.00;0.00;;;21.00;60.00;;;;;;5049754;28;20163;-60
2021/06/29 11:36:35;;;;;;;0.10;0.10;;;21.00;60.40;;;;;;5050492;28;20231;-61
2021/06/29 11:39:17;;;;;;;0.10;0.10;;;21.00;60.70;;;;;;5028456;28;20124;-60
2021/06/29 11:42:09;;;;;;;0.10;0.10;;;21.10;60.40;;;;;;5049178;28;20115;-61
2021/06/29 11:44:38;;;;;;;0.08;0.08;;;21.10;59.80;;;;;;5049144;28;20037;-60
2021/06/29 11:47:15;;;;;;;0.00;0.00;;;21.10;60.40;;;;;;5049343;28;20094;-60
2021/06/29 11:49:54;;;;;;;0.10;0.05;;;21.00;60.80;;;;;;5050207;28;20048;-60
2021/06/29 11:52:24;;;;;;;0.00;0.00;;;21.00;61.70;;;;;;5050460;28;20123;-60
2021/06/29 11:55:23;;;;;;;0.00;0.00;;;21.00;62.10;;;;;;5054448;28;20153;-62
2021/06/29 11:57:54;;;;;;;0.30;0.10;;;21.00;61.90;;;;;;4956977;28;20178;-62
2021/06/29 12:00:38;;;;;;;0.03;0.03;;;21.10;62.10;;;;;;4953828;29;20138;-61
2021/06/29 12:03:12;;;;;;;0.28;0.00;;;21.20;61.90;;;;;;4950066;28;20523;-61
2021/06/29 12:05:39;;;;;;;0.08;0.08;;;21.40;62.70;;;;;;4953132;29;20192;-61
2021/06/29 12:08:10;;;;;;;0.00;0.00;;;21.50;60.90;;;;;;4955705;28;20508;-62
2021/06/29 12:10:40;;;;;;;;;;;21.60;59.00;;;;;;4954581;29;20051;-61
2021/06/29 12:13:08;;;;;;;;;;;21.60;59.50;;;;;;4950719;28;20385;-64
2021/06/29 12:15:40;;;;;;;0.30;0.10;;;21.70;60.00;;;;;;4937048;29;20522;-62
2021/06/29 12:18:06;;;;;;;0.00;0.00;;;21.70;59.60;;;;;;4959211;28;20059;-61
2021/06/29 12:20:37;;;;;;;0.00;0.00;;;21.80;58.90;;;;;;4951996;29;20654;-63
2021/06/29 12:23:06;;;;;;;0.00;0.00;;;21.90;58.00;;;;;;4953244;28;20129;-63
2021/06/29 12:25:35;;;;;;;0.00;0.00;;;22.00;58.80;;;;;;4958826;28;20618;-63
2021/06/29 12:28:10;;;;;;;0.10;0.10;;;22.10;59.20;;;;;;4956396;28;20085;-63
2021/06/29 12:30:57;;;;;;;0.00;0.00;;;22.20;58.30;;;;;;4954274;29;20098;-62
2021/06/29 12:33:35;;;;;;;0.00;0.00;;;22.30;58.80;;;;;;4987271;28;20243;-62
2021/06/29 12:36:04;;;;;;;0.00;0.00;;;22.40;58.10;;;;;;5014051;28;20132;-61
2021/06/29 12:38:37;;;;;;;0.00;0.00;;;22.40;56.70;;;;;;5027852;28;20128;-61
2021/06/29 12:41:09;;;;;;;0.10;0.00;;;22.30;56.50;;;;;;5014900;28;20545;-61
2021/06/29 12:43:44;;;;;;;0.00;0.00;;;22.30;56.40;;;;;;5015579;28;20049;-61
2021/06/29 12:46:22;;;;;;;0.00;0.00;;;22.20;56.60;;;;;;5014077;28;20045;-61
2021/06/29 12:49:08;;;;;;;0.00;0.00;;;22.20;56.70;;;;;;5014089;28;20050;-61
2021/06/29 12:51:40;;;;;;;0.00;0.00;;;22.10;56.00;;;;;;5014112;28;20053;-61
2021/06/29 12:54:12;;;;;;;0.00;0.00;;;22.00;56.40;;;;;;5013959;28;20501;-61
2021/06/29 12:56:43;;;;;;;0.10;0.05;;;21.90;56.40;;;;;;5014478;28;20046;-61
2021/06/29 12:59:10;;;;;;;0.00;0.00;;;21.90;56.10;;;;;;5015879;28;20045;-61
2021/06/29 13:01:45;;;;;;;0.00;0.00;;;21.80;56.10;;;;;;5014722;28;20132;-61
2021/06/29 13:04:15;;;;;;;0.00;0.00;;;21.80;56.60;;;;;;5010897;28;20164;-61